Newburg Corners, Wisconsin
Current Conditions -  °F | °C
As of 11:53 AM on Sunday 25 Jan 2015 (Local Time) from KLSE Reporting Station
Overcast Overcast  
Wind Chill: 22°   Ceiling: 3000
Heat Index: 30°   Visibility: 10mi
Dew Point: 16°   Wind: 9mph
Humidity: 56%   Direction: 30°NNE
Pressure: 30"   Gusts: NA
Location:  43.8385°N, 90.9811°W
Report Text: KLSE 251753Z 03008KT 10SM BKN030 OVC046 M01/M09 A3000 RMK AO2 SLP170 T10111089 11011 21028 51025
Loading
Personal Weather Stations






























Interactive Weather Map New forecast layout! Learn more

10-Day Weather Forecast

Advertisements
Track Severe Weather on mobile